sensor_id;sensor_type;location;lat;lon;timestamp;P1;durP1;ratioP1;P2;durP2;ratioP2
78844;SDS011;68195;50.854;2.860;2023-04-07T00:00:02;7.72;;;5.55;;
78844;SDS011;68195;50.854;2.860;2023-04-07T00:02:30;7.70;;;5.68;;
78844;SDS011;68195;50.854;2.860;2023-04-07T00:04:56;7.80;;;5.63;;
78844;SDS011;68195;50.854;2.860;2023-04-07T00:07:22;6.90;;;5.35;;
78844;SDS011;68195;50.854;2.860;2023-04-07T00:09:48;6.63;;;5.57;;
78844;SDS011;68195;50.854;2.860;2023-04-07T00:12:15;7.03;;;5.40;;
78844;SDS011;68195;50.854;2.860;2023-04-07T00:14:43;7.53;;;5.50;;
78844;SDS011;68195;50.854;2.860;2023-04-07T00:17:08;8.35;;;5.43;;
78844;SDS011;68195;50.854;2.860;2023-04-07T00:19:36;8.80;;;5.57;;
78844;SDS011;68195;50.854;2.860;2023-04-07T00:22:04;8.23;;;4.90;;
78844;SDS011;68195;50.854;2.860;2023-04-07T00:24:32;8.63;;;5.10;;
78844;SDS011;68195;50.854;2.860;2023-04-07T00:26:57;9.80;;;5.72;;
78844;SDS011;68195;50.854;2.860;2023-04-07T00:29:26;9.00;;;5.35;;
78844;SDS011;68195;50.854;2.860;2023-04-07T00:31:51;7.85;;;5.03;;
78844;SDS011;68195;50.854;2.860;2023-04-07T00:34:16;8.68;;;5.28;;
78844;SDS011;68195;50.854;2.860;2023-04-07T00:36:42;9.57;;;6.03;;
78844;SDS011;68195;50.854;2.860;2023-04-07T00:39:07;8.85;;;5.18;;
78844;SDS011;68195;50.854;2.860;2023-04-07T00:41:33;8.70;;;5.70;;
78844;SDS011;68195;50.854;2.860;2023-04-07T00:44:01;7.35;;;5.47;;
78844;SDS011;68195;50.854;2.860;2023-04-07T00:46:27;7.47;;;5.20;;
78844;SDS011;68195;50.854;2.860;2023-04-07T00:48:52;8.10;;;5.35;;
78844;SDS011;68195;50.854;2.860;2023-04-07T00:51:20;7.57;;;5.40;;
78844;SDS011;68195;50.854;2.860;2023-04-07T00:53:50;7.78;;;5.32;;
78844;SDS011;68195;50.854;2.860;2023-04-07T00:56:18;8.40;;;4.97;;
78844;SDS011;68195;50.854;2.860;2023-04-07T00:58:43;8.50;;;5.15;;
78844;SDS011;68195;50.854;2.860;2023-04-07T01:01:14;9.02;;;5.72;;
78844;SDS011;68195;50.854;2.860;2023-04-07T01:07:07;13.45;;;7.32;;
78844;SDS011;68195;50.854;2.860;2023-04-07T01:09:37;11.95;;;7.10;;
78844;SDS011;68195;50.854;2.860;2023-04-07T01:12:09;11.23;;;6.90;;
78844;SDS011;68195;50.854;2.860;2023-04-07T01:14:45;12.98;;;6.72;;
78844;SDS011;68195;50.854;2.860;2023-04-07T01:17:15;12.70;;;6.85;;
78844;SDS011;68195;50.854;2.860;2023-04-07T01:22:25;9.02;;;6.18;;
78844;SDS011;68195;50.854;2.860;2023-04-07T01:30:17;9.85;;;7.13;;
78844;SDS011;68195;50.854;2.860;2023-04-07T01:35:11;8.70;;;5.65;;
78844;SDS011;68195;50.854;2.860;2023-04-07T01:37:40;10.95;;;7.20;;
78844;SDS011;68195;50.854;2.860;2023-04-07T01:40:07;9.57;;;5.90;;
78844;SDS011;68195;50.854;2.860;2023-04-07T01:42:36;10.82;;;7.03;;
78844;SDS011;68195;50.854;2.860;2023-04-07T01:45:03;10.20;;;6.30;;
78844;SDS011;68195;50.854;2.860;2023-04-07T01:47:31;10.48;;;6.35;;
78844;SDS011;68195;50.854;2.860;2023-04-07T01:50:01;9.80;;;6.93;;
78844;SDS011;68195;50.854;2.860;2023-04-07T01:52:33;11.85;;;7.40;;
78844;SDS011;68195;50.854;2.860;2023-04-07T01:55:00;10.15;;;6.13;;
78844;SDS011;68195;50.854;2.860;2023-04-07T01:57:26;11.18;;;6.15;;
78844;SDS011;68195;50.854;2.860;2023-04-07T01:59:52;8.98;;;6.30;;
78844;SDS011;68195;50.854;2.860;2023-04-07T02:02:20;14.90;;;6.53;;
78844;SDS011;68195;50.854;2.860;2023-04-07T02:04:55;10.73;;;6.13;;
78844;SDS011;68195;50.854;2.860;2023-04-07T02:10:11;7.15;;;4.82;;
78844;SDS011;68195;50.854;2.860;2023-04-07T02:12:39;9.07;;;5.25;;
78844;SDS011;68195;50.854;2.860;2023-04-07T02:15:10;8.10;;;4.78;;
78844;SDS011;68195;50.854;2.860;2023-04-07T02:17:37;10.90;;;5.70;;
78844;SDS011;68195;50.854;2.860;2023-04-07T02:20:07;10.07;;;6.18;;
78844;SDS011;68195;50.854;2.860;2023-04-07T02:22:34;8.57;;;6.05;;
78844;SDS011;68195;50.854;2.860;2023-04-07T02:25:01;7.93;;;5.50;;
78844;SDS011;68195;50.854;2.860;2023-04-07T02:27:29;9.57;;;5.97;;
78844;SDS011;68195;50.854;2.860;2023-04-07T02:29:55;10.00;;;5.57;;
78844;SDS011;68195;50.854;2.860;2023-04-07T02:32:20;9.95;;;5.97;;
78844;SDS011;68195;50.854;2.860;2023-04-07T02:34:45;11.38;;;7.15;;
78844;SDS011;68195;50.854;2.860;2023-04-07T02:37:13;11.70;;;7.30;;
78844;SDS011;68195;50.854;2.860;2023-04-07T02:39:38;11.15;;;6.80;;
78844;SDS011;68195;50.854;2.860;2023-04-07T02:42:04;12.73;;;6.80;;
78844;SDS011;68195;50.854;2.860;2023-04-07T02:44:29;12.82;;;8.55;;
78844;SDS011;68195;50.854;2.860;2023-04-07T02:47:02;15.90;;;8.27;;
78844;SDS011;68195;50.854;2.860;2023-04-07T02:49:27;12.55;;;7.78;;
78844;SDS011;68195;50.854;2.860;2023-04-07T02:51:55;12.40;;;8.30;;
78844;SDS011;68195;50.854;2.860;2023-04-07T02:54:20;13.18;;;8.38;;
78844;SDS011;68195;50.854;2.860;2023-04-07T02:56:48;12.82;;;9.27;;
78844;SDS011;68195;50.854;2.860;2023-04-07T02:59:13;15.75;;;8.20;;
78844;SDS011;68195;50.854;2.860;2023-04-07T03:01:41;13.05;;;7.72;;
78844;SDS011;68195;50.854;2.860;2023-04-07T03:04:07;13.68;;;7.93;;
78844;SDS011;68195;50.854;2.860;2023-04-07T03:06:37;12.30;;;8.48;;
78844;SDS011;68195;50.854;2.860;2023-04-07T03:09:02;13.00;;;8.05;;
78844;SDS011;68195;50.854;2.860;2023-04-07T03:11:30;14.90;;;8.65;;
78844;SDS011;68195;50.854;2.860;2023-04-07T03:14:00;11.52;;;8.55;;
78844;SDS011;68195;50.854;2.860;2023-04-07T03:16:28;14.70;;;7.25;;
78844;SDS011;68195;50.854;2.860;2023-04-07T03:18:56;12.30;;;7.65;;
78844;SDS011;68195;50.854;2.860;2023-04-07T03:21:23;14.88;;;8.32;;
78844;SDS011;68195;50.854;2.860;2023-04-07T03:23:53;14.50;;;8.02;;
78844;SDS011;68195;50.854;2.860;2023-04-07T03:26:20;12.20;;;7.40;;
78844;SDS011;68195;50.854;2.860;2023-04-07T03:28:46;12.48;;;6.90;;
78844;SDS011;68195;50.854;2.860;2023-04-07T03:31:11;11.00;;;6.30;;
78844;SDS011;68195;50.854;2.860;2023-04-07T03:33:37;12.80;;;6.95;;
78844;SDS011;68195;50.854;2.860;2023-04-07T03:36:02;9.77;;;6.53;;
78844;SDS011;68195;50.854;2.860;2023-04-07T03:38:30;13.30;;;6.43;;
78844;SDS011;68195;50.854;2.860;2023-04-07T03:40:58;8.45;;;5.85;;
78844;SDS011;68195;50.854;2.860;2023-04-07T03:43:23;11.90;;;5.10;;
78844;SDS011;68195;50.854;2.860;2023-04-07T03:45:51;7.97;;;4.55;;
78844;SDS011;68195;50.854;2.860;2023-04-07T03:48:17;7.68;;;4.30;;
78844;SDS011;68195;50.854;2.860;2023-04-07T03:50:47;8.00;;;5.20;;
78844;SDS011;68195;50.854;2.860;2023-04-07T03:53:13;10.27;;;4.35;;
78844;SDS011;68195;50.854;2.860;2023-04-07T03:55:40;7.65;;;4.30;;
78844;SDS011;68195;50.854;2.860;2023-04-07T03:58:08;6.53;;;4.35;;
78844;SDS011;68195;50.854;2.860;2023-04-07T04:00:34;9.73;;;4.70;;
78844;SDS011;68195;50.854;2.860;2023-04-07T04:03:01;7.47;;;4.25;;
78844;SDS011;68195;50.854;2.860;2023-04-07T04:05:30;8.60;;;3.88;;
78844;SDS011;68195;50.854;2.860;2023-04-07T04:07:57;8.52;;;3.90;;
78844;SDS011;68195;50.854;2.860;2023-04-07T04:10:25;8.35;;;3.95;;
78844;SDS011;68195;50.854;2.860;2023-04-07T04:12:51;6.30;;;3.88;;
78844;SDS011;68195;50.854;2.860;2023-04-07T04:15:18;6.47;;;3.85;;
78844;SDS011;68195;50.854;2.860;2023-04-07T04:17:44;8.02;;;3.67;;
78844;SDS011;68195;50.854;2.860;2023-04-07T04:20:09;7.65;;;3.17;;
78844;SDS011;68195;50.854;2.860;2023-04-07T04:22:35;8.70;;;2.97;;
78844;SDS011;68195;50.854;2.860;2023-04-07T04:25:00;5.88;;;3.28;;
78844;SDS011;68195;50.854;2.860;2023-04-07T04:27:28;7.35;;;3.20;;
78844;SDS011;68195;50.854;2.860;2023-04-07T04:29:56;6.80;;;3.28;;
78844;SDS011;68195;50.854;2.860;2023-04-07T04:32:21;6.35;;;2.80;;
78844;SDS011;68195;50.854;2.860;2023-04-07T04:34:47;6.43;;;2.80;;
78844;SDS011;68195;50.854;2.860;2023-04-07T04:37:12;8.20;;;3.00;;
78844;SDS011;68195;50.854;2.860;2023-04-07T04:39:37;4.57;;;2.80;;
78844;SDS011;68195;50.854;2.860;2023-04-07T04:42:03;5.72;;;2.78;;
78844;SDS011;68195;50.854;2.860;2023-04-07T04:44:29;5.20;;;2.65;;
78844;SDS011;68195;50.854;2.860;2023-04-07T04:46:57;3.50;;;2.30;;
78844;SDS011;68195;50.854;2.860;2023-04-07T04:49:23;3.63;;;2.50;;
78844;SDS011;68195;50.854;2.860;2023-04-07T04:51:50;4.70;;;2.45;;
78844;SDS011;68195;50.854;2.860;2023-04-07T04:54:18;5.38;;;2.38;;
78844;SDS011;68195;50.854;2.860;2023-04-07T04:56:46;7.20;;;2.35;;
78844;SDS011;68195;50.854;2.860;2023-04-07T04:59:14;4.25;;;2.80;;
78844;SDS011;68195;50.854;2.860;2023-04-07T05:01:39;6.60;;;2.42;;
78844;SDS011;68195;50.854;2.860;2023-04-07T05:04:05;7.80;;;2.85;;
78844;SDS011;68195;50.854;2.860;2023-04-07T05:06:34;5.43;;;2.65;;
78844;SDS011;68195;50.854;2.860;2023-04-07T05:08:59;5.00;;;3.35;;
78844;SDS011;68195;50.854;2.860;2023-04-07T05:11:25;7.13;;;2.58;;
78844;SDS011;68195;50.854;2.860;2023-04-07T05:13:55;4.93;;;2.65;;
78844;SDS011;68195;50.854;2.860;2023-04-07T05:16:20;7.43;;;3.08;;
78844;SDS011;68195;50.854;2.860;2023-04-07T05:18:50;5.10;;;2.80;;
78844;SDS011;68195;50.854;2.860;2023-04-07T05:21:18;5.68;;;2.70;;
78844;SDS011;68195;50.854;2.860;2023-04-07T05:23:46;5.78;;;2.78;;
78844;SDS011;68195;50.854;2.860;2023-04-07T05:26:14;6.60;;;2.65;;
78844;SDS011;68195;50.854;2.860;2023-04-07T05:28:45;6.78;;;2.95;;
78844;SDS011;68195;50.854;2.860;2023-04-07T05:31:11;4.38;;;2.35;;
78844;SDS011;68195;50.854;2.860;2023-04-07T05:33:36;5.32;;;3.50;;
78844;SDS011;68195;50.854;2.860;2023-04-07T05:36:01;6.55;;;3.22;;
78844;SDS011;68195;50.854;2.860;2023-04-07T05:38:30;7.45;;;2.88;;
78844;SDS011;68195;50.854;2.860;2023-04-07T05:40:55;13.98;;;3.35;;
78844;SDS011;68195;50.854;2.860;2023-04-07T05:43:22;5.47;;;2.70;;
78844;SDS011;68195;50.854;2.860;2023-04-07T05:45:53;6.45;;;2.85;;
78844;SDS011;68195;50.854;2.860;2023-04-07T05:48:18;5.57;;;2.83;;
78844;SDS011;68195;50.854;2.860;2023-04-07T05:50:43;4.32;;;2.25;;
78844;SDS011;68195;50.854;2.860;2023-04-07T05:53:11;6.57;;;2.72;;
78844;SDS011;68195;50.854;2.860;2023-04-07T05:55:40;5.28;;;2.63;;
78844;SDS011;68195;50.854;2.860;2023-04-07T05:58:06;6.35;;;2.63;;
78844;SDS011;68195;50.854;2.860;2023-04-07T06:00:34;6.40;;;2.95;;
78844;SDS011;68195;50.854;2.860;2023-04-07T06:03:02;10.13;;;2.97;;
78844;SDS011;68195;50.854;2.860;2023-04-07T06:05:27;5.53;;;2.80;;
78844;SDS011;68195;50.854;2.860;2023-04-07T06:07:55;6.63;;;3.50;;
78844;SDS011;68195;50.854;2.860;2023-04-07T06:10:24;8.95;;;3.38;;
78844;SDS011;68195;50.854;2.860;2023-04-07T06:12:49;5.78;;;2.75;;
78844;SDS011;68195;50.854;2.860;2023-04-07T06:15:19;7.22;;;3.00;;
78844;SDS011;68195;50.854;2.860;2023-04-07T06:17:45;5.90;;;3.35;;
78844;SDS011;68195;50.854;2.860;2023-04-07T06:20:13;8.50;;;3.30;;
78844;SDS011;68195;50.854;2.860;2023-04-07T06:22:40;6.10;;;2.88;;
78844;SDS011;68195;50.854;2.860;2023-04-07T06:25:06;6.55;;;2.90;;
78844;SDS011;68195;50.854;2.860;2023-04-07T06:27:31;5.97;;;2.90;;
78844;SDS011;68195;50.854;2.860;2023-04-07T06:29:59;8.52;;;3.33;;
78844;SDS011;68195;50.854;2.860;2023-04-07T06:32:25;5.38;;;2.78;;
78844;SDS011;68195;50.854;2.860;2023-04-07T06:34:53;7.45;;;3.00;;
78844;SDS011;68195;50.854;2.860;2023-04-07T06:37:21;4.75;;;3.40;;
78844;SDS011;68195;50.854;2.860;2023-04-07T06:39:48;4.80;;;2.65;;
78844;SDS011;68195;50.854;2.860;2023-04-07T06:42:16;8.00;;;3.20;;
78844;SDS011;68195;50.854;2.860;2023-04-07T06:44:44;5.10;;;3.47;;
78844;SDS011;68195;50.854;2.860;2023-04-07T06:47:10;6.07;;;3.22;;
78844;SDS011;68195;50.854;2.860;2023-04-07T06:49:37;5.78;;;2.97;;
78844;SDS011;68195;50.854;2.860;2023-04-07T06:52:03;6.50;;;3.78;;
78844;SDS011;68195;50.854;2.860;2023-04-07T06:54:29;8.05;;;3.40;;
78844;SDS011;68195;50.854;2.860;2023-04-07T06:56:55;7.00;;;4.10;;
78844;SDS011;68195;50.854;2.860;2023-04-07T06:59:22;6.28;;;2.85;;
78844;SDS011;68195;50.854;2.860;2023-04-07T07:01:48;6.88;;;3.58;;
78844;SDS011;68195;50.854;2.860;2023-04-07T07:04:15;7.25;;;3.28;;
78844;SDS011;68195;50.854;2.860;2023-04-07T07:06:43;5.47;;;3.35;;
78844;SDS011;68195;50.854;2.860;2023-04-07T07:09:08;6.30;;;3.88;;
78844;SDS011;68195;50.854;2.860;2023-04-07T07:11:33;9.95;;;3.67;;
78844;SDS011;68195;50.854;2.860;2023-04-07T07:13:59;6.50;;;3.38;;
78844;SDS011;68195;50.854;2.860;2023-04-07T07:16:27;5.20;;;3.03;;
78844;SDS011;68195;50.854;2.860;2023-04-07T07:18:52;10.45;;;3.97;;
78844;SDS011;68195;50.854;2.860;2023-04-07T07:21:18;10.05;;;3.78;;
78844;SDS011;68195;50.854;2.860;2023-04-07T07:23:43;7.60;;;4.25;;
78844;SDS011;68195;50.854;2.860;2023-04-07T07:26:09;8.85;;;3.85;;
78844;SDS011;68195;50.854;2.860;2023-04-07T07:28:37;7.78;;;4.25;;
78844;SDS011;68195;50.854;2.860;2023-04-07T07:31:11;5.15;;;3.65;;
78844;SDS011;68195;50.854;2.860;2023-04-07T07:33:38;5.57;;;3.95;;
78844;SDS011;68195;50.854;2.860;2023-04-07T07:36:05;9.00;;;4.03;;
78844;SDS011;68195;50.854;2.860;2023-04-07T07:38:32;7.63;;;4.35;;
78844;SDS011;68195;50.854;2.860;2023-04-07T07:41:05;8.80;;;4.18;;
78844;SDS011;68195;50.854;2.860;2023-04-07T07:43:33;8.98;;;4.40;;
78844;SDS011;68195;50.854;2.860;2023-04-07T07:45:58;8.98;;;4.63;;
78844;SDS011;68195;50.854;2.860;2023-04-07T07:48:28;6.88;;;4.50;;
78844;SDS011;68195;50.854;2.860;2023-04-07T07:50:53;7.40;;;4.55;;
78844;SDS011;68195;50.854;2.860;2023-04-07T07:53:21;8.10;;;4.93;;
78844;SDS011;68195;50.854;2.860;2023-04-07T07:55:49;7.72;;;4.00;;
78844;SDS011;68195;50.854;2.860;2023-04-07T07:58:15;8.38;;;4.50;;
78844;SDS011;68195;50.854;2.860;2023-04-07T08:00:40;6.03;;;4.00;;
78844;SDS011;68195;50.854;2.860;2023-04-07T08:03:08;10.07;;;5.53;;
78844;SDS011;68195;50.854;2.860;2023-04-07T08:05:35;6.03;;;4.40;;
78844;SDS011;68195;50.854;2.860;2023-04-07T08:08:03;7.30;;;4.53;;
78844;SDS011;68195;50.854;2.860;2023-04-07T08:10:31;7.72;;;4.53;;
78844;SDS011;68195;50.854;2.860;2023-04-07T08:12:57;9.32;;;4.30;;
78844;SDS011;68195;50.854;2.860;2023-04-07T08:15:24;9.88;;;5.05;;
78844;SDS011;68195;50.854;2.860;2023-04-07T08:17:52;6.30;;;4.47;;
78844;SDS011;68195;50.854;2.860;2023-04-07T08:20:20;12.27;;;4.85;;
78844;SDS011;68195;50.854;2.860;2023-04-07T08:22:45;10.27;;;4.68;;
78844;SDS011;68195;50.854;2.860;2023-04-07T08:25:13;6.72;;;3.65;;
78844;SDS011;68195;50.854;2.860;2023-04-07T08:27:43;9.60;;;4.53;;
78844;SDS011;68195;50.854;2.860;2023-04-07T08:30:08;7.82;;;4.03;;
78844;SDS011;68195;50.854;2.860;2023-04-07T08:32:38;6.10;;;3.80;;
78844;SDS011;68195;50.854;2.860;2023-04-07T08:35:05;7.57;;;4.05;;
78844;SDS011;68195;50.854;2.860;2023-04-07T08:37:31;8.77;;;4.10;;
78844;SDS011;68195;50.854;2.860;2023-04-07T08:40:00;8.93;;;4.38;;
78844;SDS011;68195;50.854;2.860;2023-04-07T08:42:30;7.47;;;3.65;;
78844;SDS011;68195;50.854;2.860;2023-04-07T08:45:01;7.00;;;3.28;;
78844;SDS011;68195;50.854;2.860;2023-04-07T08:47:29;10.60;;;3.50;;
78844;SDS011;68195;50.854;2.860;2023-04-07T08:49:59;5.13;;;2.45;;
78844;SDS011;68195;50.854;2.860;2023-04-07T08:52:29;6.35;;;2.40;;
78844;SDS011;68195;50.854;2.860;2023-04-07T08:55:00;5.93;;;2.63;;
78844;SDS011;68195;50.854;2.860;2023-04-07T08:57:29;3.33;;;1.73;;
78844;SDS011;68195;50.854;2.860;2023-04-07T08:59:57;7.43;;;1.73;;
78844;SDS011;68195;50.854;2.860;2023-04-07T09:02:30;5.35;;;2.13;;
78844;SDS011;68195;50.854;2.860;2023-04-07T09:04:57;4.60;;;2.00;;
78844;SDS011;68195;50.854;2.860;2023-04-07T09:07:23;4.28;;;2.03;;
78844;SDS011;68195;50.854;2.860;2023-04-07T09:09:51;3.40;;;1.30;;
78844;SDS011;68195;50.854;2.860;2023-04-07T09:12:17;2.58;;;1.33;;
78844;SDS011;68195;50.854;2.860;2023-04-07T09:14:42;4.18;;;1.45;;
78844;SDS011;68195;50.854;2.860;2023-04-07T09:17:08;6.38;;;2.00;;
78844;SDS011;68195;50.854;2.860;2023-04-07T09:19:38;3.10;;;0.88;;
78844;SDS011;68195;50.854;2.860;2023-04-07T09:22:03;1.67;;;0.85;;
78844;SDS011;68195;50.854;2.860;2023-04-07T09:24:29;2.67;;;0.80;;
78844;SDS011;68195;50.854;2.860;2023-04-07T09:29:41;9.77;;;2.10;;
78844;SDS011;68195;50.854;2.860;2023-04-07T09:32:08;3.85;;;1.52;;
78844;SDS011;68195;50.854;2.860;2023-04-07T09:34:39;6.25;;;1.70;;
78844;SDS011;68195;50.854;2.860;2023-04-07T09:37:10;4.10;;;1.55;;
78844;SDS011;68195;50.854;2.860;2023-04-07T09:39:51;3.92;;;1.40;;
78844;SDS011;68195;50.854;2.860;2023-04-07T09:42:19;5.53;;;2.00;;
78844;SDS011;68195;50.854;2.860;2023-04-07T09:44:45;4.95;;;1.83;;
78844;SDS011;68195;50.854;2.860;2023-04-07T09:47:13;4.88;;;1.60;;
78844;SDS011;68195;50.854;2.860;2023-04-07T09:49:49;4.22;;;1.45;;
78844;SDS011;68195;50.854;2.860;2023-04-07T09:52:17;5.22;;;1.50;;
78844;SDS011;68195;50.854;2.860;2023-04-07T09:54:46;3.47;;;1.65;;
78844;SDS011;68195;50.854;2.860;2023-04-07T09:57:13;7.22;;;2.30;;
78844;SDS011;68195;50.854;2.860;2023-04-07T09:59:42;3.20;;;1.25;;
78844;SDS011;68195;50.854;2.860;2023-04-07T10:02:08;2.00;;;1.10;;
78844;SDS011;68195;50.854;2.860;2023-04-07T10:04:39;2.15;;;1.02;;
78844;SDS011;68195;50.854;2.860;2023-04-07T10:07:08;3.65;;;1.30;;
78844;SDS011;68195;50.854;2.860;2023-04-07T10:09:34;5.43;;;1.40;;
78844;SDS011;68195;50.854;2.860;2023-04-07T10:12:00;4.95;;;1.38;;
78844;SDS011;68195;50.854;2.860;2023-04-07T10:14:27;3.42;;;1.70;;
78844;SDS011;68195;50.854;2.860;2023-04-07T10:16:54;2.80;;;1.60;;
78844;SDS011;68195;50.854;2.860;2023-04-07T10:19:23;2.90;;;1.00;;
78844;SDS011;68195;50.854;2.860;2023-04-07T10:21:52;1.70;;;1.05;;
78844;SDS011;68195;50.854;2.860;2023-04-07T10:27:17;2.42;;;1.40;;
78844;SDS011;68195;50.854;2.860;2023-04-07T10:29:47;4.10;;;1.60;;
78844;SDS011;68195;50.854;2.860;2023-04-07T10:32:16;5.05;;;1.55;;
78844;SDS011;68195;50.854;2.860;2023-04-07T10:37:16;6.75;;;1.73;;
78844;SDS011;68195;50.854;2.860;2023-04-07T10:39:45;3.30;;;1.92;;
78844;SDS011;68195;50.854;2.860;2023-04-07T10:45:02;6.28;;;1.58;;
78844;SDS011;68195;50.854;2.860;2023-04-07T10:47:34;8.52;;;1.88;;
78844;SDS011;68195;50.854;2.860;2023-04-07T10:50:21;3.42;;;1.60;;
78844;SDS011;68195;50.854;2.860;2023-04-07T10:52:48;3.80;;;1.35;;
78844;SDS011;68195;50.854;2.860;2023-04-07T10:55:35;3.00;;;1.40;;
78844;SDS011;68195;50.854;2.860;2023-04-07T10:58:22;6.97;;;1.48;;
78844;SDS011;68195;50.854;2.860;2023-04-07T11:03:24;4.40;;;1.33;;
78844;SDS011;68195;50.854;2.860;2023-04-07T11:05:50;3.42;;;1.40;;
78844;SDS011;68195;50.854;2.860;2023-04-07T11:08:35;6.35;;;1.10;;
78844;SDS011;68195;50.854;2.860;2023-04-07T11:11:02;2.65;;;1.17;;
78844;SDS011;68195;50.854;2.860;2023-04-07T11:13:39;2.53;;;1.30;;
78844;SDS011;68195;50.854;2.860;2023-04-07T11:16:10;4.97;;;1.63;;
78844;SDS011;68195;50.854;2.860;2023-04-07T11:18:37;3.97;;;1.30;;
78844;SDS011;68195;50.854;2.860;2023-04-07T11:21:03;3.28;;;1.35;;
78844;SDS011;68195;50.854;2.860;2023-04-07T11:23:36;2.90;;;1.52;;
78844;SDS011;68195;50.854;2.860;2023-04-07T11:26:05;2.05;;;1.20;;
78844;SDS011;68195;50.854;2.860;2023-04-07T11:28:32;2.90;;;1.73;;
78844;SDS011;68195;50.854;2.860;2023-04-07T11:30:57;3.83;;;1.52;;
78844;SDS011;68195;50.854;2.860;2023-04-07T11:35:56;1.92;;;0.93;;
78844;SDS011;68195;50.854;2.860;2023-04-07T11:38:23;3.13;;;1.13;;
78844;SDS011;68195;50.854;2.860;2023-04-07T11:40:51;3.17;;;0.93;;
78844;SDS011;68195;50.854;2.860;2023-04-07T11:43:26;3.70;;;1.00;;
78844;SDS011;68195;50.854;2.860;2023-04-07T11:46:13;4.20;;;1.15;;
78844;SDS011;68195;50.854;2.860;2023-04-07T11:48:41;3.17;;;1.02;;
78844;SDS011;68195;50.854;2.860;2023-04-07T11:51:20;1.63;;;0.90;;
78844;SDS011;68195;50.854;2.860;2023-04-07T11:53:53;3.67;;;1.10;;
78844;SDS011;68195;50.854;2.860;2023-04-07T11:56:24;1.05;;;0.80;;
78844;SDS011;68195;50.854;2.860;2023-04-07T11:58:50;1.88;;;1.00;;
78844;SDS011;68195;50.854;2.860;2023-04-07T12:01:18;1.50;;;0.93;;
78844;SDS011;68195;50.854;2.860;2023-04-07T12:06:37;3.17;;;1.30;;
78844;SDS011;68195;50.854;2.860;2023-04-07T12:09:08;2.00;;;1.05;;
78844;SDS011;68195;50.854;2.860;2023-04-07T12:11:49;2.08;;;1.00;;
78844;SDS011;68195;50.854;2.860;2023-04-07T12:14:17;4.10;;;1.00;;
78844;SDS011;68195;50.854;2.860;2023-04-07T12:16:47;3.55;;;1.13;;
78844;SDS011;68195;50.854;2.860;2023-04-07T12:19:15;1.63;;;1.08;;
78844;SDS011;68195;50.854;2.860;2023-04-07T12:21:43;2.13;;;1.05;;
78844;SDS011;68195;50.854;2.860;2023-04-07T12:24:12;3.05;;;1.02;;
78844;SDS011;68195;50.854;2.860;2023-04-07T12:26:42;2.78;;;1.35;;
78844;SDS011;68195;50.854;2.860;2023-04-07T12:29:11;4.55;;;1.30;;
78844;SDS011;68195;50.854;2.860;2023-04-07T12:31:40;4.90;;;1.63;;
78844;SDS011;68195;50.854;2.860;2023-04-07T12:34:09;5.43;;;1.63;;
78844;SDS011;68195;50.854;2.860;2023-04-07T12:36:39;2.75;;;1.38;;
78844;SDS011;68195;50.854;2.860;2023-04-07T12:39:07;1.77;;;1.10;;
78844;SDS011;68195;50.854;2.860;2023-04-07T12:41:33;4.00;;;1.58;;
78844;SDS011;68195;50.854;2.860;2023-04-07T12:43:59;8.27;;;2.03;;
78844;SDS011;68195;50.854;2.860;2023-04-07T12:46:29;4.50;;;2.05;;
78844;SDS011;68195;50.854;2.860;2023-04-07T12:48:59;4.70;;;1.55;;
78844;SDS011;68195;50.854;2.860;2023-04-07T12:51:27;4.78;;;1.98;;
78844;SDS011;68195;50.854;2.860;2023-04-07T12:53:53;3.05;;;1.40;;
78844;SDS011;68195;50.854;2.860;2023-04-07T12:56:18;4.43;;;1.88;;
78844;SDS011;68195;50.854;2.860;2023-04-07T12:58:48;3.92;;;1.60;;
78844;SDS011;68195;50.854;2.860;2023-04-07T13:01:13;6.63;;;1.83;;
78844;SDS011;68195;50.854;2.860;2023-04-07T13:03:43;4.25;;;2.10;;
78844;SDS011;68195;50.854;2.860;2023-04-07T13:06:12;4.00;;;2.15;;
78844;SDS011;68195;50.854;2.860;2023-04-07T13:08:38;6.13;;;2.17;;
78844;SDS011;68195;50.854;2.860;2023-04-07T13:11:04;4.88;;;2.05;;
78844;SDS011;68195;50.854;2.860;2023-04-07T13:13:30;2.90;;;1.52;;
78844;SDS011;68195;50.854;2.860;2023-04-07T13:15:55;5.95;;;2.28;;
78844;SDS011;68195;50.854;2.860;2023-04-07T13:18:21;4.22;;;2.15;;
78844;SDS011;68195;50.854;2.860;2023-04-07T13:20:46;6.32;;;2.20;;
78844;SDS011;68195;50.854;2.860;2023-04-07T13:23:14;3.95;;;1.70;;
78844;SDS011;68195;50.854;2.860;2023-04-07T13:25:39;3.75;;;1.90;;
78844;SDS011;68195;50.854;2.860;2023-04-07T13:28:05;5.38;;;1.42;;
78844;SDS011;68195;50.854;2.860;2023-04-07T13:30:31;2.47;;;1.52;;
78844;SDS011;68195;50.854;2.860;2023-04-07T13:32:59;7.85;;;2.20;;
78844;SDS011;68195;50.854;2.860;2023-04-07T13:35:24;2.67;;;1.60;;
78844;SDS011;68195;50.854;2.860;2023-04-07T13:37:50;2.22;;;1.20;;
78844;SDS011;68195;50.854;2.860;2023-04-07T13:40:15;5.57;;;1.60;;
78844;SDS011;68195;50.854;2.860;2023-04-07T13:42:45;5.15;;;1.40;;
78844;SDS011;68195;50.854;2.860;2023-04-07T13:45:11;5.50;;;1.33;;
78844;SDS011;68195;50.854;2.860;2023-04-07T13:47:36;4.35;;;1.58;;
78844;SDS011;68195;50.854;2.860;2023-04-07T13:50:02;5.10;;;1.52;;
78844;SDS011;68195;50.854;2.860;2023-04-07T13:52:28;7.18;;;1.50;;
78844;SDS011;68195;50.854;2.860;2023-04-07T13:54:57;3.33;;;0.80;;
78844;SDS011;68195;50.854;2.860;2023-04-07T13:57:22;3.88;;;0.95;;
78844;SDS011;68195;50.854;2.860;2023-04-07T13:59:50;9.90;;;1.58;;
78844;SDS011;68195;50.854;2.860;2023-04-07T14:02:21;4.30;;;1.48;;
78844;SDS011;68195;50.854;2.860;2023-04-07T14:04:51;2.72;;;2.13;;
78844;SDS011;68195;50.854;2.860;2023-04-07T14:07:17;2.85;;;1.48;;
78844;SDS011;68195;50.854;2.860;2023-04-07T14:09:42;4.15;;;1.35;;
78844;SDS011;68195;50.854;2.860;2023-04-07T14:12:11;3.67;;;1.23;;
78844;SDS011;68195;50.854;2.860;2023-04-07T14:14:36;1.88;;;1.15;;
78844;SDS011;68195;50.854;2.860;2023-04-07T14:17:04;7.43;;;1.38;;
78844;SDS011;68195;50.854;2.860;2023-04-07T14:19:30;1.60;;;0.88;;
78844;SDS011;68195;50.854;2.860;2023-04-07T14:21:59;1.67;;;0.77;;
78844;SDS011;68195;50.854;2.860;2023-04-07T14:24:27;1.45;;;0.77;;
78844;SDS011;68195;50.854;2.860;2023-04-07T14:26:52;2.83;;;1.13;;
78844;SDS011;68195;50.854;2.860;2023-04-07T14:29:21;2.13;;;0.90;;
78844;SDS011;68195;50.854;2.860;2023-04-07T14:31:49;2.50;;;0.90;;
78844;SDS011;68195;50.854;2.860;2023-04-07T14:34:15;0.95;;;0.68;;
78844;SDS011;68195;50.854;2.860;2023-04-07T14:36:51;2.33;;;1.00;;
78844;SDS011;68195;50.854;2.860;2023-04-07T14:39:20;1.70;;;0.88;;
78844;SDS011;68195;50.854;2.860;2023-04-07T14:41:46;3.05;;;0.75;;
78844;SDS011;68195;50.854;2.860;2023-04-07T14:44:12;2.05;;;0.75;;
78844;SDS011;68195;50.854;2.860;2023-04-07T14:46:38;2.65;;;0.90;;
78844;SDS011;68195;50.854;2.860;2023-04-07T14:49:04;0.90;;;0.80;;
78844;SDS011;68195;50.854;2.860;2023-04-07T14:51:29;2.55;;;0.77;;
78844;SDS011;68195;50.854;2.860;2023-04-07T14:53:54;4.15;;;1.30;;
78844;SDS011;68195;50.854;2.860;2023-04-07T14:56:22;3.05;;;1.13;;
78844;SDS011;68195;50.854;2.860;2023-04-07T14:58:48;3.00;;;0.82;;
78844;SDS011;68195;50.854;2.860;2023-04-07T15:01:14;4.60;;;1.67;;
78844;SDS011;68195;50.854;2.860;2023-04-07T15:03:40;6.32;;;1.52;;
78844;SDS011;68195;50.854;2.860;2023-04-07T15:06:10;3.72;;;1.10;;
78844;SDS011;68195;50.854;2.860;2023-04-07T15:08:39;1.80;;;1.20;;
78844;SDS011;68195;50.854;2.860;2023-04-07T15:11:05;2.17;;;1.45;;
78844;SDS011;68195;50.854;2.860;2023-04-07T15:13:31;2.15;;;1.40;;
78844;SDS011;68195;50.854;2.860;2023-04-07T15:16:10;2.67;;;1.35;;
78844;SDS011;68195;50.854;2.860;2023-04-07T15:18:38;2.92;;;1.55;;
78844;SDS011;68195;50.854;2.860;2023-04-07T15:21:08;4.43;;;1.60;;
78844;SDS011;68195;50.854;2.860;2023-04-07T15:23:35;2.13;;;1.10;;